createdAt,value
2024-01-08T00:02:13.623Z,-10.60
2024-01-08T00:04:43.486Z,-10.59
2024-01-08T00:07:16.998Z,-10.58
2024-01-08T00:09:50.019Z,-10.55
2024-01-08T00:12:21.748Z,-10.54
2024-01-08T00:14:52.084Z,-10.55
2024-01-08T00:17:22.743Z,-10.56
2024-01-08T00:19:54.290Z,-10.55
2024-01-08T00:22:23.876Z,-10.56
2024-01-08T00:24:55.808Z,-10.56
2024-01-08T00:27:25.318Z,-10.57
2024-01-08T00:29:58.586Z,-10.57
2024-01-08T00:32:28.471Z,-10.57
2024-01-08T00:34:57.740Z,-10.59
2024-01-08T00:37:27.120Z,-10.58
2024-01-08T00:39:56.606Z,-10.59
2024-01-08T00:42:26.082Z,-10.59
2024-01-08T00:45:09.975Z,-10.59
2024-01-08T00:47:42.111Z,-10.60
2024-01-08T00:50:11.752Z,-10.58
2024-01-08T00:52:41.848Z,-10.60
2024-01-08T00:55:13.949Z,-10.64
2024-01-08T00:57:44.478Z,-10.68
2024-01-08T01:00:16.133Z,-10.71
2024-01-08T01:02:46.694Z,-10.71
2024-01-08T01:05:17.748Z,-10.75
2024-01-08T01:07:47.491Z,-10.76
2024-01-08T01:10:19.197Z,-10.75
2024-01-08T01:12:48.381Z,-10.74
2024-01-08T01:15:17.595Z,-10.77
2024-01-08T01:17:50.350Z,-10.75
2024-01-08T01:20:19.688Z,-10.76
2024-01-08T01:22:48.923Z,-10.80
2024-01-08T01:25:18.319Z,-10.79
2024-01-08T01:27:57.121Z,-10.81
2024-01-08T01:30:26.927Z,-10.86
2024-01-08T01:32:56.896Z,-10.88
2024-01-08T01:35:26.201Z,-10.88
2024-01-08T01:37:59.030Z,-10.91
2024-01-08T01:40:28.903Z,-10.94
2024-01-08T01:42:58.707Z,-10.97
2024-01-08T01:45:27.868Z,-10.99
2024-01-08T01:47:57.876Z,-11.02
2024-01-08T01:50:27.399Z,-11.04
2024-01-08T01:52:56.396Z,-11.06
2024-01-08T01:55:25.433Z,-11.07
2024-01-08T01:57:55.814Z,-11.09
2024-01-08T02:00:27.844Z,-11.11
2024-01-08T02:02:57.289Z,-11.11
2024-01-08T02:05:27.599Z,-11.13
2024-01-08T02:07:59.616Z,-11.15
2024-01-08T02:10:30.464Z,-11.14
2024-01-08T02:13:01.905Z,-11.15
2024-01-08T02:15:31.984Z,-11.20
2024-01-08T02:18:01.131Z,-11.23
2024-01-08T02:20:30.523Z,-11.25
2024-01-08T02:22:59.953Z,-11.27
2024-01-08T02:25:31.830Z,-11.27
2024-01-08T02:28:00.870Z,-11.26
2024-01-08T02:30:30.746Z,-11.28
2024-01-08T02:32:59.797Z,-11.30
2024-01-08T02:35:28.911Z,-11.31
2024-01-08T02:37:58.412Z,-11.33
2024-01-08T02:40:28.437Z,-11.33
2024-01-08T02:42:57.664Z,-11.33
2024-01-08T02:45:27.100Z,-11.35
2024-01-08T02:47:56.326Z,-11.38
2024-01-08T02:50:25.774Z,-11.43
2024-01-08T02:52:55.295Z,-11.45
2024-01-08T02:55:24.416Z,-11.46
2024-01-08T02:57:53.826Z,-11.48
2024-01-08T03:00:23.046Z,-11.47
2024-01-08T03:02:52.832Z,-11.47
2024-01-08T03:05:22.085Z,-11.51
2024-01-08T03:07:51.329Z,-11.51
2024-01-08T03:10:20.767Z,-11.51
2024-01-08T03:12:49.702Z,-11.54
2024-01-08T03:15:19.438Z,-11.57
2024-01-08T03:17:48.625Z,-11.60
2024-01-08T03:20:18.150Z,-11.64
2024-01-08T03:22:47.279Z,-11.65
2024-01-08T03:25:16.406Z,-11.67
2024-01-08T03:27:45.959Z,-11.69
2024-01-08T03:30:16.049Z,-11.71
2024-01-08T03:32:45.251Z,-11.71
2024-01-08T03:35:14.707Z,-11.72
2024-01-08T03:37:43.614Z,-11.71
2024-01-08T03:40:14.261Z,-11.73
2024-01-08T03:42:43.292Z,-11.75
2024-01-08T03:45:12.205Z,-11.77
2024-01-08T03:47:43.175Z,-11.81
2024-01-08T03:50:12.199Z,-11.83
2024-01-08T03:52:42.278Z,-11.87
2024-01-08T03:55:11.655Z,-11.88
2024-01-08T03:57:40.759Z,-11.86
2024-01-08T04:00:13.189Z,-11.90
2024-01-08T04:02:42.769Z,-11.91
2024-01-08T04:05:14.017Z,-11.98
2024-01-08T04:07:43.103Z,-12.01
2024-01-08T04:10:13.192Z,-12.03
2024-01-08T04:12:42.325Z,-12.05
2024-01-08T04:15:11.956Z,-12.05
2024-01-08T04:17:44.762Z,-12.09
2024-01-08T04:20:14.490Z,-12.10
2024-01-08T04:22:46.697Z,-12.12
2024-01-08T04:25:15.943Z,-12.14
2024-01-08T04:27:45.295Z,-12.15
2024-01-08T04:30:15.328Z,-12.17
2024-01-08T04:32:44.298Z,-12.19
2024-01-08T04:35:15.151Z,-12.24
2024-01-08T04:37:44.127Z,-12.27
2024-01-08T04:40:13.693Z,-12.28
2024-01-08T04:42:43.128Z,-12.27
2024-01-08T04:45:15.478Z,-12.30
2024-01-08T04:47:50.176Z,-12.30
2024-01-08T04:50:21.043Z,-12.35
2024-01-08T04:52:50.989Z,-12.34
2024-01-08T04:55:21.003Z,-12.35
2024-01-08T04:57:51.013Z,-12.34
2024-01-08T05:00:20.506Z,-12.36
2024-01-08T05:02:50.412Z,-12.37
2024-01-08T05:05:19.999Z,-12.36
2024-01-08T05:07:49.435Z,-12.36
2024-01-08T05:10:18.851Z,-12.36
2024-01-08T05:12:47.920Z,-12.36
2024-01-08T05:15:17.800Z,-12.38
2024-01-08T05:17:46.939Z,-12.39
2024-01-08T05:20:17.035Z,-12.39
2024-01-08T05:22:47.959Z,-12.41
2024-01-08T05:25:16.989Z,-12.44
2024-01-08T05:27:46.294Z,-12.44
2024-01-08T05:30:16.592Z,-12.44
2024-01-08T05:32:46.071Z,-12.47
2024-01-08T05:35:15.568Z,-12.48
2024-01-08T05:37:45.089Z,-12.48
2024-01-08T05:40:15.174Z,-12.47
2024-01-08T05:42:45.947Z,-12.52
2024-01-08T05:45:15.559Z,-12.57
2024-01-08T05:47:47.387Z,-12.62
2024-01-08T05:50:17.123Z,-12.65
2024-01-08T05:52:48.250Z,-12.67
2024-01-08T05:55:17.705Z,-12.73
2024-01-08T05:57:46.710Z,-12.78
2024-01-08T06:00:18.371Z,-12.84
2024-01-08T06:02:47.494Z,-12.87
2024-01-08T06:05:17.994Z,-12.92
2024-01-08T06:07:49.644Z,-12.93
2024-01-08T06:10:18.649Z,-12.92
2024-01-08T06:12:47.550Z,-12.94
2024-01-08T06:15:17.147Z,-12.98
2024-01-08T06:17:46.851Z,-13.00
2024-01-08T06:20:16.937Z,-13.05
2024-01-08T06:22:45.977Z,-13.08
2024-01-08T06:25:15.330Z,-13.13
2024-01-08T06:27:44.165Z,-13.17
2024-01-08T06:30:14.722Z,-13.18
2024-01-08T06:32:43.926Z,-13.22
2024-01-08T06:35:13.016Z,-13.26
2024-01-08T06:37:43.426Z,-13.26
2024-01-08T06:40:13.823Z,-13.28
2024-01-08T06:42:52.935Z,-13.28
2024-01-08T06:45:29.821Z,-13.31
2024-01-08T06:47:58.905Z,-13.30
2024-01-08T06:50:28.531Z,-13.30
2024-01-08T06:52:57.425Z,-13.29
2024-01-08T06:55:26.596Z,-13.29
2024-01-08T06:57:55.511Z,-13.26
2024-01-08T07:00:26.971Z,-13.25
2024-01-08T07:02:56.614Z,-13.25
2024-01-08T07:05:26.430Z,-13.25
2024-01-08T07:07:55.650Z,-13.24
2024-01-08T07:10:25.435Z,-13.23
2024-01-08T07:12:54.638Z,-13.20
2024-01-08T07:15:40.949Z,-13.16
2024-01-08T07:18:10.379Z,-13.12
2024-01-08T07:20:43.377Z,-13.09
2024-01-08T07:23:14.579Z,-13.06
2024-01-08T07:25:43.745Z,-13.02
2024-01-08T07:28:15.293Z,-12.98
2024-01-08T07:30:44.878Z,-12.98
2024-01-08T07:33:13.943Z,-12.96
2024-01-08T07:35:43.225Z,-12.90
2024-01-08T07:38:13.419Z,-12.84
2024-01-08T07:40:42.846Z,-12.80
2024-01-08T07:43:12.506Z,-12.77
2024-01-08T07:45:43.223Z,-12.72
2024-01-08T07:48:13.317Z,-12.69
2024-01-08T07:50:42.865Z,-12.71
2024-01-08T07:53:12.069Z,-12.67
2024-01-08T07:55:43.470Z,-12.60
2024-01-08T07:58:15.022Z,-12.57
2024-01-08T08:00:45.031Z,-12.48
2024-01-08T08:03:14.452Z,-12.44
2024-01-08T08:05:44.101Z,-12.37
2024-01-08T08:08:13.329Z,-12.35
2024-01-08T08:10:42.447Z,-12.33
2024-01-08T08:13:11.561Z,-12.26
2024-01-08T08:15:41.783Z,-12.20
2024-01-08T08:18:11.402Z,-12.17
2024-01-08T08:20:43.591Z,-12.09
2024-01-08T08:23:13.764Z,-12.03
2024-01-08T08:25:42.921Z,-11.97
2024-01-08T08:28:12.146Z,-11.97
2024-01-08T08:30:42.386Z,-11.92
2024-01-08T08:33:12.016Z,-11.87
2024-01-08T08:35:41.446Z,-11.79
2024-01-08T08:38:10.479Z,-11.69
2024-01-08T08:40:40.969Z,-11.61
2024-01-08T08:43:10.859Z,-11.52
2024-01-08T08:45:41.250Z,-11.43
2024-01-08T08:48:10.631Z,-11.39
2024-01-08T08:50:40.827Z,-11.35
2024-01-08T08:53:10.632Z,-11.35
2024-01-08T08:55:41.082Z,-11.30
2024-01-08T08:58:10.174Z,-11.24
2024-01-08T09:00:40.226Z,-11.20
2024-01-08T09:03:09.653Z,-11.13
2024-01-08T09:05:45.842Z,-11.07
2024-01-08T09:08:17.384Z,-11.00
2024-01-08T09:10:46.414Z,-10.97
2024-01-08T09:13:15.282Z,-10.93
2024-01-08T09:15:44.253Z,-10.95
2024-01-08T09:18:14.729Z,-10.42
2024-01-08T09:20:43.954Z,-9.42
2024-01-08T09:23:13.327Z,-9.67
2024-01-08T09:25:42.357Z,-9.96
2024-01-08T09:28:11.261Z,-10.20
2024-01-08T09:30:42.246Z,-10.33
2024-01-08T09:33:11.356Z,-10.41
2024-01-08T09:35:41.729Z,-10.56
2024-01-08T09:38:10.907Z,-10.64
2024-01-08T09:40:41.391Z,-10.72
2024-01-08T09:43:12.931Z,-10.74
2024-01-08T09:45:55.453Z,-10.78
2024-01-08T09:48:25.644Z,-10.78
2024-01-08T09:50:54.939Z,-10.75
2024-01-08T09:53:25.646Z,-10.68
2024-01-08T09:55:55.432Z,-10.60
2024-01-08T09:58:24.895Z,-10.47
2024-01-08T10:00:54.600Z,-9.84
2024-01-08T10:03:24.285Z,-8.69
2024-01-08T10:05:53.597Z,-7.02
2024-01-08T10:08:22.583Z,-6.02
2024-01-08T10:10:54.416Z,-5.40
2024-01-08T10:13:24.139Z,-4.72
2024-01-08T10:15:54.107Z,-4.13
2024-01-08T10:18:25.483Z,-3.23
2024-01-08T10:21:10.187Z,-2.71
2024-01-08T10:23:40.804Z,-2.30
2024-01-08T10:26:13.838Z,-1.84
2024-01-08T10:28:43.237Z,-1.51
2024-01-08T10:31:13.365Z,-1.24
2024-01-08T10:33:42.478Z,-1.11
2024-01-08T10:36:12.353Z,-0.85
2024-01-08T10:38:44.096Z,-0.68
2024-01-08T10:41:13.244Z,-0.42
2024-01-08T10:43:42.488Z,-0.13
2024-01-08T10:46:13.074Z,-0.13
2024-01-08T10:48:44.778Z,-0.35
2024-01-08T10:51:17.815Z,-0.54
2024-01-08T10:53:47.711Z,-0.81
2024-01-08T10:56:19.996Z,-0.89
2024-01-08T10:58:59.233Z,-0.87
2024-01-08T11:01:41.562Z,-1.01
2024-01-08T11:04:11.430Z,-1.19
2024-01-08T11:06:43.966Z,-1.30
2024-01-08T11:09:26.636Z,-1.84
2024-01-08T11:11:57.250Z,-2.24
2024-01-08T11:14:26.611Z,-2.45
2024-01-08T11:16:56.541Z,-2.82
2024-01-08T11:19:29.101Z,-3.68
2024-01-08T11:22:11.562Z,-4.64
2024-01-08T11:24:45.310Z,-5.51
2024-01-08T11:27:17.626Z,-6.09
2024-01-08T11:29:56.467Z,-6.48
2024-01-08T11:33:15.502Z,-7.03
2024-01-08T11:35:55.615Z,-7.54
2024-01-08T11:38:28.186Z,-7.86
2024-01-08T11:40:58.111Z,-8.09
2024-01-08T11:43:30.373Z,-8.29
2024-01-08T11:46:00.738Z,-8.52
2024-01-08T11:48:30.384Z,-8.78
2024-01-08T11:50:59.898Z,-8.91
2024-01-08T11:53:30.077Z,-9.02
2024-01-08T11:56:00.082Z,-9.11
2024-01-08T11:58:29.237Z,-9.17
2024-01-08T12:00:58.146Z,-9.14
2024-01-08T12:03:27.601Z,-9.13
2024-01-08T12:06:15.504Z,-9.19
2024-01-08T12:08:44.698Z,-9.28
2024-01-08T12:11:13.688Z,-9.34
2024-01-08T12:13:43.012Z,-9.39
2024-01-08T12:16:12.206Z,-9.37
2024-01-08T12:18:44.695Z,-9.35
2024-01-08T12:21:14.066Z,-9.33
2024-01-08T12:23:43.460Z,-9.29
2024-01-08T12:26:12.416Z,-9.25
2024-01-08T12:28:43.177Z,-9.19
2024-01-08T12:31:12.597Z,-9.11
2024-01-08T12:33:44.122Z,-9.07
2024-01-08T12:36:13.109Z,-9.11
2024-01-08T12:38:43.841Z,-9.12
2024-01-08T12:41:13.086Z,-9.20
2024-01-08T12:43:44.935Z,-9.27
2024-01-08T12:46:13.888Z,-9.27
2024-01-08T12:48:43.057Z,-9.25
2024-01-08T12:51:12.344Z,-9.23
2024-01-08T12:53:43.610Z,-9.29
2024-01-08T12:56:12.721Z,-9.34
2024-01-08T12:58:43.014Z,-9.42
2024-01-08T13:01:12.242Z,-9.51
2024-01-08T13:03:42.226Z,-9.57
2024-01-08T13:06:11.248Z,-9.61
2024-01-08T13:08:43.512Z,-9.65
2024-01-08T13:11:13.235Z,-9.66
2024-01-08T13:13:42.505Z,-9.65
2024-01-08T13:16:11.558Z,-9.67
2024-01-08T13:18:41.809Z,-9.73
2024-01-08T13:21:10.949Z,-9.81
2024-01-08T13:23:42.106Z,-9.88
2024-01-08T13:26:13.136Z,-9.91
2024-01-08T13:28:42.675Z,-9.95
2024-01-08T13:31:13.982Z,-9.97
2024-01-08T13:33:45.776Z,-9.99
2024-01-08T13:36:14.761Z,-10.03
2024-01-08T13:38:43.708Z,-10.06
2024-01-08T13:41:13.228Z,-10.09
2024-01-08T13:43:42.719Z,-10.14
2024-01-08T13:46:12.430Z,-10.18
2024-01-08T13:48:43.179Z,-10.22
2024-01-08T13:51:13.825Z,-10.24
2024-01-08T13:53:42.671Z,-10.26
2024-01-08T13:56:12.012Z,-10.28
2024-01-08T13:58:42.571Z,-10.31
2024-01-08T14:01:13.546Z,-10.33
2024-01-08T14:03:43.816Z,-10.33
2024-01-08T14:06:13.612Z,-10.36
2024-01-08T14:08:43.575Z,-10.42
2024-01-08T14:11:12.962Z,-10.47
2024-01-08T14:13:42.521Z,-10.51
2024-01-08T14:16:12.816Z,-10.54
2024-01-08T14:18:42.449Z,-10.56
2024-01-08T14:21:11.436Z,-10.58
2024-01-08T14:23:42.404Z,-10.62
2024-01-08T14:26:11.371Z,-10.67
2024-01-08T14:28:41.341Z,-10.72
2024-01-08T14:31:11.023Z,-10.75
2024-01-08T14:33:43.201Z,-10.78
2024-01-08T14:36:13.352Z,-10.80
2024-01-08T14:38:42.375Z,-10.85
2024-01-08T14:41:11.694Z,-10.89
2024-01-08T14:43:41.931Z,-10.91
2024-01-08T14:46:11.024Z,-10.96
2024-01-08T14:48:41.005Z,-10.99
2024-01-08T14:51:12.301Z,-11.05
2024-01-08T14:53:43.632Z,-11.10
2024-01-08T14:56:15.216Z,-11.14
2024-01-08T14:58:45.826Z,-11.20
2024-01-08T15:01:15.092Z,-11.24
2024-01-08T15:03:44.444Z,-11.29
2024-01-08T15:06:14.248Z,-11.34
2024-01-08T15:08:43.633Z,-11.39
2024-01-08T15:11:13.576Z,-11.42
2024-01-08T15:13:42.959Z,-11.48
2024-01-08T15:16:12.296Z,-11.51
2024-01-08T15:18:42.738Z,-11.54
2024-01-08T15:21:13.060Z,-11.56
2024-01-08T15:23:44.843Z,-11.59
2024-01-08T15:26:14.080Z,-11.63
2024-01-08T15:28:47.781Z,-11.67
2024-01-08T15:31:18.801Z,-11.69
2024-01-08T15:33:51.227Z,-11.71
2024-01-08T15:36:21.202Z,-11.72
2024-01-08T15:38:54.113Z,-11.75
2024-01-08T15:41:25.467Z,-11.78
2024-01-08T15:43:55.317Z,-11.82
2024-01-08T15:46:33.022Z,-11.83
2024-01-08T15:49:05.522Z,-11.87
2024-01-08T15:51:40.155Z,-11.89
2024-01-08T15:54:09.943Z,-11.92
2024-01-08T15:56:44.865Z,-11.95
2024-01-08T15:59:19.508Z,-11.99
2024-01-08T16:01:52.218Z,-12.04
2024-01-08T16:04:24.022Z,-12.06
2024-01-08T16:06:55.856Z,-12.08
2024-01-08T16:09:25.262Z,-12.12
2024-01-08T16:11:54.932Z,-12.15
2024-01-08T16:14:27.576Z,-12.18
2024-01-08T16:17:16.373Z,-12.23
2024-01-08T16:19:49.355Z,-12.27
2024-01-08T16:22:18.563Z,-12.29
2024-01-08T16:25:10.105Z,-12.31
2024-01-08T16:27:41.750Z,-12.34
2024-01-08T16:30:14.763Z,-12.38
2024-01-08T16:32:44.254Z,-12.40
2024-01-08T16:35:15.777Z,-12.43
2024-01-08T16:37:49.957Z,-12.46
2024-01-08T16:40:25.573Z,-12.46
2024-01-08T16:42:55.545Z,-12.48
2024-01-08T16:45:28.829Z,-12.51
2024-01-08T16:47:59.670Z,-12.54
2024-01-08T16:50:31.884Z,-12.58
2024-01-08T16:53:06.575Z,-12.60
2024-01-08T16:55:37.287Z,-12.62
2024-01-08T16:58:10.484Z,-12.64
2024-01-08T17:00:42.761Z,-12.66
2024-01-08T17:03:13.284Z,-12.66
2024-01-08T17:05:42.663Z,-12.68
2024-01-08T17:08:11.612Z,-12.70
2024-01-08T17:10:42.019Z,-12.75
2024-01-08T17:13:14.059Z,-12.76
2024-01-08T17:15:46.640Z,-12.78
2024-01-08T17:18:16.453Z,-12.80
2024-01-08T17:20:46.960Z,-12.82
2024-01-08T17:23:16.247Z,-12.83
2024-01-08T17:25:46.340Z,-12.84
2024-01-08T17:28:19.417Z,-12.86
2024-01-08T17:33:31.656Z,-12.95
2024-01-08T17:36:02.972Z,-12.98
2024-01-08T17:38:33.587Z,-13.01
2024-01-08T17:41:03.431Z,-13.01
2024-01-08T17:43:32.878Z,-13.03
2024-01-08T17:46:06.890Z,-13.04
2024-01-08T17:48:37.341Z,-13.04
2024-01-08T17:51:07.274Z,-13.02
2024-01-08T17:53:36.729Z,-13.02
2024-01-08T17:56:07.961Z,-13.02
2024-01-08T17:58:38.317Z,-13.05
2024-01-08T18:01:10.999Z,-13.08
2024-01-08T18:03:42.443Z,-13.09
2024-01-08T18:06:11.577Z,-13.11
2024-01-08T18:08:43.345Z,-13.09
2024-01-08T18:11:18.965Z,-13.10
2024-01-08T18:13:52.413Z,-13.10
2024-01-08T18:16:24.921Z,-13.07
2024-01-08T18:19:04.056Z,-13.06
2024-01-08T18:21:35.912Z,-13.07
2024-01-08T18:24:08.185Z,-13.09
2024-01-08T18:26:37.962Z,-13.10
2024-01-08T18:29:14.989Z,-13.12
2024-01-08T18:31:53.581Z,-13.12
2024-01-08T18:34:23.096Z,-13.14
2024-01-08T18:36:55.112Z,-13.15
2024-01-08T18:39:25.725Z,-13.19
2024-01-08T18:42:01.159Z,-13.22
2024-01-08T18:44:37.829Z,-13.25
2024-01-08T18:47:12.503Z,-13.27
2024-01-08T18:49:45.728Z,-13.29
2024-01-08T18:52:21.581Z,-13.33
2024-01-08T18:54:53.362Z,-13.34
2024-01-08T18:57:24.252Z,-13.36
2024-01-08T18:59:58.076Z,-13.37
2024-01-08T19:02:27.968Z,-13.39
2024-01-08T19:05:06.459Z,-13.40
2024-01-08T19:07:35.729Z,-13.46
2024-01-08T19:10:07.262Z,-13.45
2024-01-08T19:12:37.993Z,-13.45
2024-01-08T19:15:17.809Z,-13.45
2024-01-08T19:17:57.545Z,-13.45
2024-01-08T19:20:29.603Z,-13.52
2024-01-08T19:23:00.038Z,-13.53
2024-01-08T19:25:31.612Z,-13.58
2024-01-08T19:28:02.212Z,-13.59
2024-01-08T19:30:31.555Z,-13.60
2024-01-08T19:33:07.779Z,-13.60
2024-01-08T19:35:37.284Z,-13.61
2024-01-08T19:38:06.546Z,-13.62
2024-01-08T19:40:37.883Z,-13.63
2024-01-08T19:43:11.942Z,-13.66
2024-01-08T19:45:42.566Z,-13.71
2024-01-08T19:48:11.863Z,-13.76
2024-01-08T19:50:44.791Z,-13.82
2024-01-08T19:53:14.238Z,-13.88
2024-01-08T19:55:46.577Z,-13.92
2024-01-08T19:58:15.880Z,-13.92
2024-01-08T20:00:44.943Z,-13.92
2024-01-08T20:03:13.966Z,-13.92
2024-01-08T20:05:43.694Z,-13.92
2024-01-08T20:08:13.058Z,-13.91
2024-01-08T20:10:43.373Z,-13.89
2024-01-08T20:13:12.523Z,-13.87
2024-01-08T20:15:44.804Z,-13.84
2024-01-08T20:18:15.304Z,-13.84
2024-01-08T20:20:45.766Z,-13.84
2024-01-08T20:23:15.067Z,-13.85
2024-01-08T20:25:44.206Z,-13.85
2024-01-08T20:28:13.769Z,-13.84
2024-01-08T20:30:42.994Z,-13.85
2024-01-08T20:33:12.135Z,-13.84
2024-01-08T20:35:44.058Z,-13.89
2024-01-08T20:38:14.001Z,-13.90
2024-01-08T20:40:43.459Z,-13.91
2024-01-08T20:43:13.116Z,-13.91
2024-01-08T20:45:43.639Z,-13.89
2024-01-08T20:48:13.226Z,-13.87
2024-01-08T20:50:43.495Z,-13.86
2024-01-08T20:53:13.701Z,-13.85
2024-01-08T20:55:43.714Z,-13.83
2024-01-08T20:58:14.197Z,-13.79
2024-01-08T21:00:43.314Z,-13.79
2024-01-08T21:03:13.123Z,-13.83
2024-01-08T21:05:44.601Z,-13.90
2024-01-08T21:08:14.973Z,-13.94
2024-01-08T21:10:44.541Z,-14.01
2024-01-08T21:13:14.157Z,-14.05
2024-01-08T21:15:43.757Z,-14.05
2024-01-08T21:18:13.152Z,-14.03
2024-01-08T21:20:45.275Z,-14.07
2024-01-08T21:23:14.586Z,-14.15
2024-01-08T21:25:44.069Z,-14.18
2024-01-08T21:28:13.088Z,-14.21
2024-01-08T21:30:43.321Z,-14.21
2024-01-08T21:33:12.931Z,-14.24
2024-01-08T21:35:44.698Z,-14.27
2024-01-08T21:38:13.983Z,-14.28
2024-01-08T21:40:43.826Z,-14.29
2024-01-08T21:43:13.041Z,-14.26
2024-01-08T21:45:43.403Z,-14.24
2024-01-08T21:48:14.261Z,-14.24
2024-01-08T21:50:44.814Z,-14.22
2024-01-08T21:53:18.349Z,-14.19
2024-01-08T21:55:50.293Z,-14.18
2024-01-08T21:58:20.327Z,-14.15
2024-01-08T22:00:51.485Z,-14.14
2024-01-08T22:03:22.129Z,-14.12
2024-01-08T22:05:54.529Z,-14.09
2024-01-08T22:08:23.939Z,-14.07
2024-01-08T22:10:53.613Z,-14.07
2024-01-08T22:13:24.660Z,-14.05
2024-01-08T22:15:53.995Z,-14.05
2024-01-08T22:18:23.806Z,-14.05
2024-01-08T22:20:54.423Z,-14.08
2024-01-08T22:23:24.164Z,-14.12
2024-01-08T22:25:56.178Z,-14.18
2024-01-08T22:28:26.118Z,-14.21
2024-01-08T22:30:55.460Z,-14.24
2024-01-08T22:33:25.383Z,-14.26
2024-01-08T22:35:56.904Z,-14.25
2024-01-08T22:38:26.803Z,-14.24
2024-01-08T22:40:55.987Z,-14.24
2024-01-08T22:43:25.307Z,-14.24
2024-01-08T22:45:54.700Z,-14.25
2024-01-08T22:48:25.028Z,-14.23
2024-01-08T22:50:54.897Z,-14.24
2024-01-08T22:53:24.219Z,-14.29
2024-01-08T22:55:53.598Z,-14.30
2024-01-08T22:58:22.904Z,-14.37
2024-01-08T23:00:55.324Z,-14.44
2024-01-08T23:03:27.986Z,-14.49
2024-01-08T23:05:57.661Z,-14.53
2024-01-08T23:08:26.907Z,-14.50
2024-01-08T23:10:56.032Z,-14.51
2024-01-08T23:13:25.233Z,-14.54
2024-01-08T23:15:54.598Z,-14.58
2024-01-08T23:18:23.756Z,-14.61
2024-01-08T23:20:53.638Z,-14.62
2024-01-08T23:23:23.017Z,-14.63
2024-01-08T23:25:52.968Z,-14.60
2024-01-08T23:28:22.375Z,-14.57
2024-01-08T23:30:52.439Z,-14.55
2024-01-08T23:33:22.360Z,-14.53
2024-01-08T23:35:53.758Z,-14.54
2024-01-08T23:38:26.304Z,-14.57
2024-01-08T23:40:55.350Z,-14.61
2024-01-08T23:43:24.608Z,-14.61
2024-01-08T23:45:53.801Z,-14.61
2024-01-08T23:48:24.958Z,-14.64
2024-01-08T23:50:54.601Z,-14.66
2024-01-08T23:53:23.568Z,-14.68
2024-01-08T23:55:52.826Z,-14.70
2024-01-08T23:58:24.881Z,-14.72
